createdAt,value
2023-03-11T00:00:55.062Z,0.30
2023-03-11T00:03:24.749Z,1.08
2023-03-11T00:05:53.748Z,0.50
2023-03-11T00:08:23.421Z,0.43
2023-03-11T00:10:55.543Z,1.75
2023-03-11T00:13:22.894Z,0.88
2023-03-11T00:15:51.680Z,0.77
2023-03-11T00:18:18.405Z,0.20
2023-03-11T00:20:46.800Z,1.00
2023-03-11T00:23:15.211Z,0.65
2023-03-11T00:25:44.467Z,0.55
2023-03-11T00:28:11.642Z,1.23
2023-03-11T00:30:40.184Z,0.38
2023-03-11T00:33:08.112Z,2.25
2023-03-11T00:35:35.400Z,1.05
2023-03-11T00:38:06.911Z,0.47
2023-03-11T00:40:36.350Z,0.55
2023-03-11T00:43:03.932Z,0.20
2023-03-11T00:45:31.203Z,0.60
2023-03-11T00:47:58.139Z,0.95
2023-03-11T00:50:28.934Z,0.40
2023-03-11T00:52:55.440Z,0.98
2023-03-11T00:55:32.885Z,0.73
2023-03-11T00:58:03.084Z,0.60
2023-03-11T01:00:30.766Z,0.70
2023-03-11T01:02:58.014Z,0.60
2023-03-11T01:05:28.411Z,0.43
2023-03-11T01:07:54.942Z,0.75
2023-03-11T01:10:21.512Z,0.57
2023-03-11T01:12:48.015Z,0.43
2023-03-11T01:15:28.121Z,0.80
2023-03-11T01:17:54.544Z,1.92
2023-03-11T01:20:21.591Z,0.55
2023-03-11T01:22:49.042Z,0.45
2023-03-11T01:25:17.786Z,0.40
2023-03-11T01:27:44.843Z,0.73
2023-03-11T01:30:15.806Z,0.80
2023-03-11T01:32:43.985Z,0.65
2023-03-11T01:35:15.152Z,0.40
2023-03-11T01:37:41.951Z,1.05
2023-03-11T01:40:33.732Z,0.45
2023-03-11T01:43:01.091Z,0.63
2023-03-11T01:45:40.766Z,0.20
2023-03-11T01:48:10.927Z,0.77
2023-03-11T01:50:43.612Z,0.88
2023-03-11T01:53:11.160Z,0.90
2023-03-11T01:55:38.423Z,0.40
2023-03-11T01:58:10.704Z,0.98
2023-03-11T02:00:37.958Z,0.70
2023-03-11T02:03:14.760Z,0.50
2023-03-11T02:05:41.823Z,0.50
2023-03-11T02:08:08.874Z,0.60
2023-03-11T02:10:38.777Z,0.47
2023-03-11T02:13:05.284Z,0.45
2023-03-11T02:15:31.748Z,0.40
2023-03-11T02:18:01.935Z,0.45
2023-03-11T02:20:49.499Z,0.50
2023-03-11T02:23:18.655Z,0.82
2023-03-11T02:25:54.528Z,2.58
2023-03-11T02:28:22.000Z,0.57
2023-03-11T02:30:50.329Z,0.80
2023-03-11T02:33:18.642Z,0.73
2023-03-11T02:35:45.217Z,0.60
2023-03-11T02:38:11.653Z,0.50
2023-03-11T02:40:46.257Z,0.50
2023-03-11T02:43:18.008Z,0.70
2023-03-11T02:45:47.124Z,2.20
2023-03-11T02:48:15.401Z,0.50
2023-03-11T02:50:42.076Z,0.60
2023-03-11T02:53:08.504Z,1.10
2023-03-11T02:55:35.013Z,0.63
2023-03-11T02:58:01.490Z,0.70
2023-03-11T03:00:27.996Z,0.85
2023-03-11T03:02:54.867Z,1.02
2023-03-11T03:05:22.758Z,1.00
2023-03-11T03:07:50.347Z,0.85
2023-03-11T03:10:17.680Z,1.23
2023-03-11T03:12:44.194Z,0.90
2023-03-11T03:15:11.985Z,1.90
2023-03-11T03:17:39.653Z,0.55
2023-03-11T03:20:11.233Z,1.48
2023-03-11T03:22:38.951Z,0.75
2023-03-11T03:25:06.507Z,1.17
2023-03-11T03:27:34.104Z,0.70
2023-03-11T03:30:00.647Z,1.58
2023-03-11T03:32:27.398Z,0.68
2023-03-11T03:34:58.962Z,1.65
2023-03-11T03:37:27.333Z,0.60
2023-03-11T03:39:54.776Z,0.88
2023-03-11T03:42:21.871Z,0.60
2023-03-11T03:44:48.293Z,0.88
2023-03-11T03:47:14.816Z,0.60
2023-03-11T03:49:41.445Z,0.70
2023-03-11T03:52:08.720Z,0.75
2023-03-11T03:54:35.160Z,1.30
2023-03-11T03:57:02.132Z,1.23
2023-03-11T03:59:28.889Z,1.10
2023-03-11T04:01:55.445Z,0.80
2023-03-11T04:04:22.506Z,0.73
2023-03-11T04:06:49.369Z,1.45
2023-03-11T04:09:16.012Z,0.75
2023-03-11T04:11:43.514Z,1.27
2023-03-11T04:14:10.262Z,0.73
2023-03-11T04:16:36.959Z,2.78
2023-03-11T04:19:04.684Z,1.20
2023-03-11T04:21:32.349Z,1.17
2023-03-11T04:23:59.357Z,1.67
2023-03-11T04:26:25.939Z,0.73
2023-03-11T04:28:52.487Z,1.25
2023-03-11T04:31:19.084Z,0.68
2023-03-11T04:33:45.552Z,0.65
2023-03-11T04:36:12.825Z,1.20
2023-03-11T04:38:39.584Z,1.02
2023-03-11T04:41:07.491Z,0.90
2023-03-11T04:43:34.312Z,0.68
2023-03-11T04:46:00.841Z,1.35
2023-03-11T04:48:27.581Z,0.50
2023-03-11T04:50:55.484Z,0.73
2023-03-11T04:53:23.073Z,0.70
2023-03-11T04:55:50.468Z,1.02
2023-03-11T04:58:17.005Z,1.17
2023-03-11T05:00:43.381Z,0.63
2023-03-11T05:03:09.913Z,0.65
2023-03-11T05:05:37.558Z,0.68
2023-03-11T05:08:04.155Z,1.42
2023-03-11T05:10:31.985Z,0.90
2023-03-11T05:12:58.978Z,1.77
2023-03-11T05:15:25.421Z,4.28
2023-03-11T05:17:53.861Z,0.70
2023-03-11T05:20:21.322Z,0.55
2023-03-11T05:22:47.756Z,0.95
2023-03-11T05:25:14.393Z,0.90
2023-03-11T05:27:40.971Z,0.47
2023-03-11T05:30:10.373Z,0.55
2023-03-11T05:32:37.029Z,0.77
2023-03-11T05:35:03.646Z,1.63
2023-03-11T05:37:32.233Z,0.93
2023-03-11T05:39:58.788Z,0.60
2023-03-11T05:42:25.413Z,0.93
2023-03-11T05:44:51.952Z,1.08
2023-03-11T05:47:20.562Z,1.13
2023-03-11T05:49:48.765Z,0.68
2023-03-11T05:52:15.889Z,1.15
2023-03-11T05:54:42.451Z,0.73
2023-03-11T05:57:08.858Z,0.73
2023-03-11T05:59:37.542Z,2.28
2023-03-11T06:02:04.198Z,0.90
2023-03-11T06:04:31.112Z,0.80
2023-03-11T06:06:57.778Z,0.82
2023-03-11T06:09:24.249Z,0.80
2023-03-11T06:11:50.668Z,1.00
2023-03-11T06:14:17.116Z,0.50
2023-03-11T06:16:43.762Z,1.48
2023-03-11T06:19:10.512Z,0.57
2023-03-11T06:21:36.937Z,2.40
2023-03-11T06:24:04.067Z,0.63
2023-03-11T06:26:30.535Z,2.22
2023-03-11T06:28:56.991Z,7.30
2023-03-11T06:31:26.946Z,1.30
2023-03-11T06:33:58.685Z,1.17
2023-03-11T06:36:26.129Z,1.25
2023-03-11T06:38:53.365Z,0.80
2023-03-11T06:41:20.218Z,2.38
2023-03-11T06:43:46.860Z,1.15
2023-03-11T06:46:20.367Z,1.25
2023-03-11T06:48:47.361Z,1.35
2023-03-11T06:51:14.257Z,3.47
2023-03-11T06:53:41.223Z,2.08
2023-03-11T06:56:10.241Z,1.02
2023-03-11T06:58:38.292Z,1.60
2023-03-11T07:01:07.766Z,0.57
2023-03-11T07:03:34.622Z,1.58
2023-03-11T07:06:04.962Z,1.00
2023-03-11T07:08:33.027Z,1.13
2023-03-11T07:11:05.301Z,0.95
2023-03-11T07:13:32.106Z,1.60
2023-03-11T07:16:08.807Z,1.17
2023-03-11T07:18:35.617Z,2.92
2023-03-11T07:21:04.030Z,0.55
2023-03-11T07:23:30.540Z,1.00
2023-03-11T07:25:56.988Z,2.28
2023-03-11T07:28:25.317Z,0.63
2023-03-11T07:30:53.118Z,1.02
2023-03-11T07:33:20.886Z,1.17
2023-03-11T07:35:49.223Z,1.10
2023-03-11T07:38:17.921Z,0.95
2023-03-11T07:40:44.884Z,1.58
2023-03-11T07:43:11.524Z,0.80
2023-03-11T07:45:38.075Z,0.52
2023-03-11T07:48:05.064Z,1.20
2023-03-11T07:50:31.607Z,2.22
2023-03-11T07:52:58.028Z,1.70
2023-03-11T07:55:24.430Z,1.23
2023-03-11T07:57:51.662Z,1.90
2023-03-11T08:00:18.706Z,0.93
2023-03-11T08:02:45.234Z,1.48
2023-03-11T08:05:11.875Z,1.08
2023-03-11T08:07:38.621Z,5.78
2023-03-11T08:10:05.365Z,0.68
2023-03-11T08:12:31.904Z,0.65
2023-03-11T08:14:58.350Z,0.85
2023-03-11T08:17:24.740Z,1.48
2023-03-11T08:19:52.245Z,0.47
2023-03-11T08:22:18.751Z,2.35
2023-03-11T08:24:45.189Z,0.93
2023-03-11T08:27:12.279Z,1.08
2023-03-11T08:29:38.954Z,1.08
2023-03-11T08:32:05.767Z,2.00
2023-03-11T08:34:35.025Z,1.65
2023-03-11T08:37:01.772Z,0.50
2023-03-11T08:39:28.184Z,1.05
2023-03-11T08:41:54.626Z,0.73
2023-03-11T08:44:21.111Z,1.23
2023-03-11T08:46:47.721Z,2.33
2023-03-11T08:49:14.151Z,4.00
2023-03-11T08:51:40.637Z,0.35
2023-03-11T08:54:07.010Z,1.20
2023-03-11T08:56:33.510Z,1.25
2023-03-11T08:58:59.899Z,1.95
2023-03-11T09:01:26.590Z,1.20
2023-03-11T09:03:53.000Z,0.82
2023-03-11T09:06:19.747Z,0.52
2023-03-11T09:08:47.337Z,1.00
2023-03-11T09:11:15.423Z,1.50
2023-03-11T09:13:42.813Z,1.13
2023-03-11T09:16:13.829Z,4.78
2023-03-11T09:18:40.733Z,1.70
2023-03-11T09:21:07.876Z,2.08
2023-03-11T09:23:34.498Z,1.08
2023-03-11T09:26:00.979Z,0.50
2023-03-11T09:28:27.416Z,0.63
2023-03-11T09:30:53.950Z,0.30
2023-03-11T09:33:20.489Z,2.95
2023-03-11T09:35:47.082Z,1.75
2023-03-11T09:38:13.468Z,0.57
2023-03-11T09:40:57.310Z,0.88
2023-03-11T09:43:51.278Z,1.23
2023-03-11T09:46:45.495Z,0.40
2023-03-11T09:51:55.130Z,0.40
2023-03-11T09:54:22.777Z,0.20
2023-03-11T09:56:50.054Z,1.23
2023-03-11T09:59:32.125Z,3.83
2023-03-11T10:02:00.497Z,0.75
2023-03-11T10:04:34.077Z,0.45
2023-03-11T10:07:09.550Z,1.75
2023-03-11T10:09:40.977Z,0.52
2023-03-11T10:15:23.359Z,1.33
2023-03-11T10:18:16.010Z,1.00
2023-03-11T10:20:48.082Z,0.70
2023-03-11T10:23:50.177Z,0.50
2023-03-11T10:26:26.180Z,2.60
2023-03-11T10:29:00.033Z,2.35
2023-03-11T10:31:41.803Z,0.93
2023-03-11T10:34:15.558Z,1.02
2023-03-11T10:37:09.418Z,1.30
2023-03-11T10:39:37.983Z,2.55
2023-03-11T10:42:06.620Z,1.25
2023-03-11T10:44:39.063Z,0.50
2023-03-11T10:47:07.235Z,0.57
2023-03-11T10:49:33.853Z,1.00
2023-03-11T10:52:03.079Z,1.98
2023-03-11T10:54:39.806Z,1.95
2023-03-11T10:57:19.042Z,1.27
2023-03-11T10:59:48.389Z,1.88
2023-03-11T11:02:27.952Z,1.42
2023-03-11T11:05:06.465Z,0.90
2023-03-11T11:07:36.253Z,1.75
2023-03-11T11:10:12.125Z,0.70
2023-03-11T11:13:01.984Z,0.70
2023-03-11T11:15:31.288Z,0.73
2023-03-11T11:18:17.889Z,3.40
2023-03-11T11:21:01.423Z,0.70
2023-03-11T11:23:37.197Z,0.60
2023-03-11T11:26:34.899Z,1.00
2023-03-11T11:29:10.231Z,0.95
2023-03-11T11:31:38.321Z,3.28
2023-03-11T11:34:23.158Z,0.88
2023-03-11T11:36:50.397Z,1.05
2023-03-11T11:39:20.295Z,1.02
2023-03-11T11:41:49.590Z,0.90
2023-03-11T11:44:21.053Z,3.70
2023-03-11T11:46:53.162Z,1.02
2023-03-11T11:49:23.920Z,0.95
2023-03-11T11:52:10.852Z,1.38
2023-03-11T11:54:46.231Z,3.45
2023-03-11T11:57:18.963Z,0.50
2023-03-11T11:59:46.550Z,1.88
2023-03-11T12:02:45.584Z,0.90
2023-03-11T12:05:32.596Z,1.88
2023-03-11T12:08:21.282Z,5.53
2023-03-11T12:11:06.036Z,3.65
2023-03-11T12:14:21.612Z,2.45
2023-03-11T12:17:01.361Z,1.75
2023-03-11T12:19:31.948Z,1.20
2023-03-11T12:22:37.570Z,1.35
2023-03-11T12:28:09.064Z,1.33
2023-03-11T12:30:44.345Z,1.67
2023-03-11T12:33:27.498Z,1.52
2023-03-11T12:35:58.864Z,1.08
2023-03-11T12:41:15.213Z,1.05
2023-03-11T12:43:41.577Z,1.27
2023-03-11T12:46:09.755Z,1.75
2023-03-11T12:48:43.138Z,1.73
2023-03-11T12:51:28.282Z,1.13
2023-03-11T12:53:56.104Z,1.70
2023-03-11T12:56:44.003Z,4.72
2023-03-11T12:59:19.721Z,1.42
2023-03-11T13:02:05.544Z,0.82
2023-03-11T13:04:47.066Z,1.45
2023-03-11T13:07:22.861Z,3.00
2023-03-11T13:10:04.239Z,1.17
2023-03-11T13:12:45.982Z,1.00
2023-03-11T13:15:18.112Z,0.85
2023-03-11T13:18:13.799Z,2.22
2023-03-11T13:20:42.851Z,2.03
2023-03-11T13:23:11.935Z,1.30
2023-03-11T13:25:47.419Z,0.98
2023-03-11T13:28:20.091Z,1.08
2023-03-11T13:31:25.106Z,3.00
2023-03-11T13:33:52.876Z,2.33
2023-03-11T13:36:23.421Z,2.72
2023-03-11T13:39:17.582Z,1.23
2023-03-11T13:44:26.595Z,2.47
2023-03-11T13:47:01.681Z,1.30
2023-03-11T13:49:43.541Z,1.65
2023-03-11T13:52:15.978Z,0.63
2023-03-11T13:54:51.703Z,1.38
2023-03-11T13:57:26.661Z,2.50
2023-03-11T13:59:54.872Z,2.13
2023-03-11T14:02:25.486Z,2.45
2023-03-11T14:04:56.105Z,1.45
2023-03-11T14:07:30.101Z,2.88
2023-03-11T14:10:11.832Z,2.13
2023-03-11T14:12:39.181Z,1.73
2023-03-11T14:15:08.818Z,2.78
2023-03-11T14:17:35.322Z,2.15
2023-03-11T14:20:16.173Z,1.17
2023-03-11T14:22:51.355Z,1.58
2023-03-11T14:25:25.373Z,2.47
2023-03-11T14:27:55.583Z,2.83
2023-03-11T14:30:26.122Z,2.25
2023-03-11T14:33:01.928Z,1.70
2023-03-11T14:35:29.550Z,2.60
2023-03-11T14:37:56.605Z,1.92
2023-03-11T14:40:31.980Z,2.80
2023-03-11T14:43:02.159Z,1.40
2023-03-11T14:45:38.845Z,2.13
2023-03-11T14:48:32.279Z,2.35
2023-03-11T14:51:01.290Z,1.45
2023-03-11T14:53:35.794Z,1.73
2023-03-11T14:56:25.255Z,2.05
2023-03-11T14:59:08.855Z,2.88
2023-03-11T15:01:40.952Z,0.80
2023-03-11T15:04:34.383Z,1.90
2023-03-11T15:07:01.869Z,1.40
2023-03-11T15:09:29.707Z,1.38
2023-03-11T15:12:02.627Z,1.92
2023-03-11T15:14:35.323Z,2.58
2023-03-11T15:17:37.067Z,2.67
2023-03-11T15:20:23.763Z,3.13
2023-03-11T15:23:00.553Z,4.00
2023-03-11T15:25:29.448Z,1.58
2023-03-11T15:27:56.706Z,1.65
2023-03-11T15:30:30.247Z,2.80
2023-03-11T15:32:58.171Z,4.00
2023-03-11T15:35:31.453Z,5.03
2023-03-11T15:38:13.291Z,2.53
2023-03-11T15:40:45.713Z,1.77
2023-03-11T15:43:15.497Z,2.58
2023-03-11T15:45:43.544Z,2.20
2023-03-11T15:48:10.989Z,1.80
2023-03-11T15:50:53.200Z,1.92
2023-03-11T15:53:21.060Z,1.88
2023-03-11T15:55:48.891Z,2.70
2023-03-11T15:58:18.105Z,1.98
2023-03-11T16:00:57.883Z,2.95
2023-03-11T16:03:24.612Z,2.45
2023-03-11T16:05:51.045Z,2.65
2023-03-11T16:08:17.461Z,2.03
2023-03-11T16:10:44.052Z,3.25
2023-03-11T16:13:13.881Z,3.42
2023-03-11T16:15:42.171Z,2.10
2023-03-11T16:18:10.015Z,3.30
2023-03-11T16:20:41.122Z,1.52
2023-03-11T16:23:12.915Z,2.47
2023-03-11T16:25:40.513Z,1.23
2023-03-11T16:28:07.549Z,2.90
2023-03-11T16:30:35.198Z,4.28
2023-03-11T16:33:04.590Z,5.50
2023-03-11T16:35:32.019Z,3.28
2023-03-11T16:37:58.725Z,8.77
2023-03-11T16:40:27.579Z,3.10
2023-03-11T16:43:02.672Z,5.03
2023-03-11T16:45:29.870Z,8.52
2023-03-11T16:47:56.410Z,9.48
2023-03-11T16:50:24.337Z,6.50
2023-03-11T16:52:52.208Z,4.82
2023-03-11T16:55:19.322Z,9.80
2023-03-11T16:57:46.006Z,11.70
2023-03-11T17:00:13.569Z,3.47
2023-03-11T17:02:40.407Z,6.07
2023-03-11T17:05:08.376Z,2.15
2023-03-11T17:07:38.133Z,2.70
2023-03-11T17:10:06.422Z,4.00
2023-03-11T17:12:32.823Z,4.53
2023-03-11T17:15:00.002Z,5.53
2023-03-11T17:17:26.530Z,3.90
2023-03-11T17:19:52.976Z,2.70
2023-03-11T17:22:19.398Z,1.88
2023-03-11T17:24:45.939Z,2.88
2023-03-11T17:27:12.555Z,1.70
2023-03-11T17:29:38.951Z,2.10
2023-03-11T17:32:06.578Z,2.28
2023-03-11T17:34:32.996Z,3.72
2023-03-11T17:36:59.491Z,2.70
2023-03-11T17:39:25.912Z,2.33
2023-03-11T17:41:52.341Z,5.13
2023-03-11T17:44:18.824Z,2.03
2023-03-11T17:46:45.394Z,3.13
2023-03-11T17:49:14.734Z,2.75
2023-03-11T17:51:41.413Z,1.40
2023-03-11T17:54:07.862Z,1.75
2023-03-11T17:56:34.540Z,1.38
2023-03-11T17:59:01.134Z,1.52
2023-03-11T18:01:28.319Z,3.95
2023-03-11T18:03:55.168Z,4.28
2023-03-11T18:06:22.593Z,3.50
2023-03-11T18:08:49.963Z,3.28
2023-03-11T18:11:19.381Z,3.97
2023-03-11T18:13:46.210Z,22.50
2023-03-11T18:16:19.101Z,7.35
2023-03-11T18:18:46.352Z,3.47
2023-03-11T18:21:17.244Z,5.93
2023-03-11T18:23:44.442Z,2.17
2023-03-11T18:26:13.192Z,2.28
2023-03-11T18:28:39.817Z,2.92
2023-03-11T18:31:12.491Z,1.80
2023-03-11T18:33:39.928Z,1.95
2023-03-11T18:36:12.656Z,1.20
2023-03-11T18:38:39.148Z,3.40
2023-03-11T18:41:05.584Z,1.10
2023-03-11T18:43:32.024Z,2.78
2023-03-11T18:45:58.524Z,1.10
2023-03-11T18:48:25.037Z,2.08
2023-03-11T18:50:54.615Z,1.35
2023-03-11T18:53:21.624Z,2.17
2023-03-11T18:55:48.525Z,1.98
2023-03-11T18:58:15.112Z,2.40
2023-03-11T19:00:41.659Z,1.80
2023-03-11T19:03:10.816Z,1.73
2023-03-11T19:05:37.905Z,2.75
2023-03-11T19:08:05.025Z,1.52
2023-03-11T19:10:31.578Z,3.03
2023-03-11T19:12:58.068Z,2.20
2023-03-11T19:15:24.543Z,4.28
2023-03-11T19:18:04.287Z,2.60
2023-03-11T19:20:30.950Z,1.90
2023-03-11T19:22:57.439Z,1.27
2023-03-11T19:25:27.530Z,2.47
2023-03-11T19:27:55.196Z,2.42
2023-03-11T19:30:22.042Z,10.88
2023-03-11T19:32:52.744Z,3.67
2023-03-11T19:35:23.625Z,4.40
2023-03-11T19:37:56.688Z,2.63
2023-03-11T19:40:23.656Z,1.85
2023-03-11T19:42:50.233Z,1.50
2023-03-11T19:45:16.782Z,1.55
2023-03-11T19:47:46.380Z,1.85
2023-03-11T19:50:12.779Z,4.40
2023-03-11T19:52:40.438Z,6.25
2023-03-11T19:55:07.627Z,5.57
2023-03-11T19:57:34.509Z,7.88
2023-03-11T20:00:01.126Z,8.13
2023-03-11T20:02:27.813Z,6.65
2023-03-11T20:04:54.455Z,5.97
2023-03-11T20:07:21.689Z,7.03
2023-03-11T20:09:48.525Z,5.35
2023-03-11T20:12:15.441Z,3.70
2023-03-11T20:14:42.935Z,4.53
2023-03-11T20:17:09.709Z,3.90
2023-03-11T20:19:36.465Z,2.42
2023-03-11T20:22:03.047Z,1.90
2023-03-11T20:24:29.585Z,2.30
2023-03-11T20:26:56.032Z,2.40
2023-03-11T20:29:22.897Z,3.08
2023-03-11T20:31:50.070Z,2.90
2023-03-11T20:34:16.932Z,3.58
2023-03-11T20:36:43.429Z,2.88
2023-03-11T20:39:10.705Z,6.53
2023-03-11T20:41:40.413Z,8.32
2023-03-11T20:44:09.108Z,9.35
2023-03-11T20:46:35.657Z,12.25
2023-03-11T20:49:02.747Z,7.90
2023-03-11T20:51:29.439Z,14.00
2023-03-11T20:53:55.935Z,24.02
2023-03-11T20:56:26.012Z,24.20
2023-03-11T20:58:55.765Z,14.00
2023-03-11T21:01:28.815Z,10.65
2023-03-11T21:03:57.788Z,12.60
2023-03-11T21:06:27.422Z,8.90
2023-03-11T21:08:59.141Z,6.32
2023-03-11T21:11:27.603Z,8.30
2023-03-11T21:13:55.363Z,8.68
2023-03-11T21:16:22.677Z,5.70
2023-03-11T21:18:49.758Z,8.70
2023-03-11T21:21:17.835Z,8.32
2023-03-11T21:23:45.180Z,6.68
2023-03-11T21:26:13.286Z,11.05
2023-03-11T21:28:40.093Z,12.35
2023-03-11T21:31:10.893Z,6.97
2023-03-11T21:33:41.079Z,5.97
2023-03-11T21:36:09.152Z,5.65
2023-03-11T21:38:36.172Z,3.25
2023-03-11T21:41:15.479Z,4.88
2023-03-11T21:43:42.876Z,9.60
2023-03-11T21:46:12.626Z,4.50
2023-03-11T21:48:39.307Z,4.78
2023-03-11T21:51:06.601Z,5.88
2023-03-11T21:53:33.167Z,6.70
2023-03-11T21:55:59.747Z,6.00
2023-03-11T21:58:27.163Z,5.03
2023-03-11T22:00:53.925Z,6.15
2023-03-11T22:03:20.511Z,4.47
2023-03-11T22:05:47.089Z,4.25
2023-03-11T22:08:16.708Z,3.58
2023-03-11T22:10:43.461Z,6.97
2023-03-11T22:13:10.200Z,6.50
2023-03-11T22:15:36.927Z,7.20
2023-03-11T22:18:03.585Z,7.60
2023-03-11T22:20:30.553Z,8.20
2023-03-11T22:22:57.176Z,8.10
2023-03-11T22:25:23.795Z,6.60
2023-03-11T22:27:50.241Z,9.43
2023-03-11T22:30:16.990Z,8.20
2023-03-11T22:32:43.740Z,5.30
2023-03-11T22:35:10.182Z,9.70
2023-03-11T22:37:36.580Z,9.25
2023-03-11T22:40:07.349Z,10.05
2023-03-11T22:42:34.512Z,7.63
2023-03-11T22:45:00.947Z,6.25
2023-03-11T22:47:27.390Z,5.95
2023-03-11T22:49:53.924Z,6.00
2023-03-11T22:52:20.390Z,3.90
2023-03-11T22:54:46.796Z,4.43
2023-03-11T22:57:13.387Z,6.82
2023-03-11T22:59:40.088Z,4.95
2023-03-11T23:02:06.537Z,5.72
2023-03-11T23:04:33.202Z,4.63
2023-03-11T23:06:59.689Z,4.15
2023-03-11T23:09:26.174Z,5.78
2023-03-11T23:11:53.338Z,6.13
2023-03-11T23:14:23.739Z,3.72
2023-03-11T23:16:54.646Z,3.63
2023-03-11T23:19:21.347Z,4.47
2023-03-11T23:21:47.751Z,3.97
2023-03-11T23:24:14.184Z,4.60
2023-03-11T23:26:40.681Z,5.15
2023-03-11T23:29:07.112Z,4.50
2023-03-11T23:31:33.636Z,4.63
2023-03-11T23:34:00.094Z,4.15
2023-03-11T23:36:30.728Z,6.03
2023-03-11T23:38:58.262Z,4.63
2023-03-11T23:41:25.896Z,3.95
2023-03-11T23:43:52.617Z,5.13
2023-03-11T23:46:19.107Z,4.97
2023-03-11T23:48:45.679Z,5.50
2023-03-11T23:51:12.261Z,6.00
2023-03-11T23:53:39.545Z,4.85
2023-03-11T23:56:11.556Z,3.40
2023-03-11T23:58:38.207Z,4.78
